Terminal Aerodrome Forecast
Issued by NWS

Home | Current Version | Previous Version | Text Only | Print | Product List | Glossary On
Versions: 1 2 3 4 5 6 7 8 9 10 11 12 13 14 15 16 17 18 19 20 21 22 23 24 25 26 27 28 29 30
152
FTAK31 PANC 241124
TAFADU
TAF
PADU 241124Z 2412/2512 18004KT P6SM VCSH SCT030 OVC080
      TEMPO 2412/2416 -SHRA BKN030
     FM241600 20006KT P6SM -SHRA BKN025 OVC040
     FM242200 VRB04KT 6SM -SHRA BR SCT010 OVC020=

USA.gov is the U.S. government's official web portal to all federal, state and local government web resources and services.